Time;durP1;ratioP1;P1;durP2;ratioP2;P2;SDS_P1;SDS_P2;PMS_P1;PMS_P2;Temp;Humidity;BMP_temperature;BMP_pressure;BME280_temperature;BME280_humidity;BME280_pressure;Samples;Min_cycle;Max_cycle;Signal;HPM_P1;HPM_P2
2023/08/30 00:00:46;;;;;;;10.48;4.40;;;;;;;;;;5012721;28;20446;-72
2023/08/30 00:03:13;;;;;;;13.30;4.38;;;;;;;;;;5016463;28;20112;-72
2023/08/30 00:05:40;;;;;;;16.38;5.00;;;;;;;;;;5000298;28;20029;-72
2023/08/30 00:08:07;;;;;;;10.32;4.60;;;;;;;;;;5003670;28;20026;-73
2023/08/30 00:10:32;;;;;;;13.50;4.07;;;;;;;;;;5023393;28;20123;-72
2023/08/30 00:12:59;;;;;;;9.98;3.65;;;;;;;;;;5018706;28;20061;-73
2023/08/30 00:15:25;;;;;;;9.23;4.32;;;;;;;;;;5019201;28;20061;-72
2023/08/30 00:17:53;;;;;;;7.22;3.83;;;;;;;;;;5013391;28;20486;-73
2023/08/30 00:20:20;;;;;;;12.10;4.32;;;;;;;;;;5012768;28;20034;-72
2023/08/30 00:22:45;;;;;;;9.70;4.20;;;;;;;;;;5014892;28;20031;-72
2023/08/30 00:25:11;;;;;;;9.65;4.18;;;;;;;;;;5015629;28;20113;-74
2023/08/30 00:27:37;;;;;;;13.25;4.53;;;;;;;;;;5006332;28;20506;-73
2023/08/30 00:30:04;;;;;;;12.02;4.10;;;;;;;;;;5006520;28;20033;-72
2023/08/30 00:32:30;;;;;;;14.25;4.60;;;;;;;;;;5000146;28;20451;-72
2023/08/30 00:34:56;;;;;;;10.10;4.43;;;;;;;;;;5002466;28;20037;-76
2023/08/30 00:37:21;;;;;;;11.32;4.25;;;;;;;;;;5003402;28;20487;-77
2023/08/30 00:39:47;;;;;;;10.63;4.75;;;;;;;;;;5007370;28;20396;-75
2023/08/30 00:42:13;;;;;;;11.75;4.43;;;;;;;;;;5014248;28;20025;-76
2023/08/30 00:44:39;;;;;;;8.43;3.85;;;;;;;;;;5010647;28;20026;-75
2023/08/30 00:47:04;;;;;;;11.25;4.32;;;;;;;;;;5002420;28;20034;-75
2023/08/30 00:49:31;;;;;;;10.38;4.45;;;;;;;;;;5012056;28;20030;-75
2023/08/30 00:51:58;;;;;;;12.75;3.90;;;;;;;;;;5010634;28;20064;-74
2023/08/30 00:54:24;;;;;;;16.35;4.57;;;;;;;;;;5010370;28;20034;-73
2023/08/30 00:56:51;;;;;;;9.50;3.75;;;;;;;;;;5002115;28;20045;-73
2023/08/30 00:59:17;;;;;;;9.95;4.35;;;;;;;;;;5018191;28;20044;-72
2023/08/30 01:01:43;;;;;;;12.65;4.28;;;;;;;;;;5001965;28;20034;-73
2023/08/30 01:04:09;;;;;;;10.65;3.60;;;;;;;;;;4990989;28;20041;-72
2023/08/30 01:06:35;;;;;;;9.77;3.95;;;;;;;;;;5015862;28;20026;-72
2023/08/30 01:09:03;;;;;;;6.50;3.53;;;;;;;;;;4999436;28;20064;-76
2023/08/30 01:11:55;;;;;;;10.40;4.28;;;;;;;;;;5002490;28;20394;-74
2023/08/30 01:14:25;;;;;;;8.95;4.00;;;;;;;;;;4991445;28;20503;-72
2023/08/30 01:16:51;;;;;;;11.35;4.13;;;;;;;;;;4998365;28;20026;-73
2023/08/30 01:19:47;;;;;;;9.40;4.03;;;;;;;;;;4999295;28;20479;-72
2023/08/30 01:22:29;;;;;;;13.93;4.22;;;;;;;;;;5020264;28;20041;-73
2023/08/30 01:25:15;;;;;;;13.68;4.38;;;;;;;;;;5011111;28;20038;-72
2023/08/30 01:27:43;;;;;;;7.20;3.75;;;;;;;;;;5016833;28;20175;-72
2023/08/30 01:30:10;;;;;;;8.82;4.07;;;;;;;;;;5004119;28;20022;-72
2023/08/30 01:32:38;;;;;;;10.18;4.28;;;;;;;;;;5000340;28;20443;-73
2023/08/30 01:35:05;;;;;;;10.00;4.03;;;;;;;;;;4996532;28;20021;-72
2023/08/30 01:37:32;;;;;;;15.18;4.38;;;;;;;;;;5009247;28;20135;-72
2023/08/30 01:39:58;;;;;;;9.15;4.20;;;;;;;;;;5010133;28;20049;-72
2023/08/30 01:42:27;;;;;;;10.85;4.03;;;;;;;;;;4995672;28;20062;-72
2023/08/30 01:44:58;;;;;;;11.18;4.00;;;;;;;;;;5004498;28;20029;-72
2023/08/30 01:47:28;;;;;;;8.40;3.45;;;;;;;;;;5007258;28;20033;-72
2023/08/30 01:49:56;;;;;;;15.52;4.47;;;;;;;;;;5007695;28;20037;-73
2023/08/30 01:52:24;;;;;;;7.85;3.58;;;;;;;;;;5019461;28;20490;-72
2023/08/30 01:54:52;;;;;;;15.25;4.00;;;;;;;;;;5001104;28;20406;-71
2023/08/30 01:57:18;;;;;;;7.15;3.47;;;;;;;;;;5006663;28;20541;-73
2023/08/30 01:59:44;;;;;;;7.30;3.80;;;;;;;;;;5007886;28;20030;-73
2023/08/30 02:02:10;;;;;;;8.70;3.80;;;;;;;;;;5012238;28;20088;-73
2023/08/30 02:04:36;;;;;;;7.07;3.22;;;;;;;;;;5014369;28;20133;-73
2023/08/30 02:07:16;;;;;;;9.60;3.35;;;;;;;;;;4999008;28;20014;-74
2023/08/30 02:09:57;;;;;;;9.02;3.25;;;;;;;;;;5003317;28;20035;-74
2023/08/30 02:12:25;;;;;;;9.20;3.90;;;;;;;;;;4996085;28;20599;-74
2023/08/30 02:14:52;;;;;;;9.07;3.83;;;;;;;;;;5001443;28;20060;-75
2023/08/30 02:17:19;;;;;;;9.35;3.50;;;;;;;;;;5005699;28;20087;-74
2023/08/30 02:19:45;;;;;;;5.05;3.10;;;;;;;;;;5005927;28;20120;-75
2023/08/30 02:22:11;;;;;;;9.63;3.33;;;;;;;;;;4990508;28;20042;-74
2023/08/30 02:24:37;;;;;;;6.40;3.25;;;;;;;;;;5000400;28;20042;-72
2023/08/30 02:27:03;;;;;;;10.95;3.13;;;;;;;;;;5014592;28;20096;-74
2023/08/30 02:29:29;;;;;;;11.35;3.63;;;;;;;;;;5022098;28;20487;-73
2023/08/30 02:31:55;;;;;;;7.45;3.60;;;;;;;;;;5007399;28;20061;-73
2023/08/30 02:34:21;;;;;;;10.13;3.42;;;;;;;;;;5009680;28;20076;-72
2023/08/30 02:36:48;;;;;;;9.63;3.30;;;;;;;;;;4995208;28;20458;-73
2023/08/30 02:39:15;;;;;;;11.55;3.00;;;;;;;;;;5008564;28;20084;-73
2023/08/30 02:41:40;;;;;;;7.82;2.58;;;;;;;;;;5005823;28;20072;-74
2023/08/30 02:44:11;;;;;;;7.60;3.40;;;;;;;;;;5011417;28;20113;-73
2023/08/30 02:46:38;;;;;;;7.15;3.20;;;;;;;;;;5006663;28;20038;-74
2023/08/30 02:49:05;;;;;;;6.90;3.20;;;;;;;;;;5011635;28;20564;-74
2023/08/30 02:51:31;;;;;;;11.02;2.85;;;;;;;;;;5000643;28;20168;-74
2023/08/30 02:53:57;;;;;;;9.27;3.05;;;;;;;;;;5006508;28;20090;-75
2023/08/30 02:56:23;;;;;;;9.15;3.40;;;;;;;;;;5000457;28;20038;-75
2023/08/30 02:58:49;;;;;;;11.55;3.40;;;;;;;;;;5007073;28;20076;-74
2023/08/30 03:01:15;;;;;;;7.00;3.17;;;;;;;;;;5004657;28;20066;-73
2023/08/30 03:03:41;;;;;;;5.97;3.22;;;;;;;;;;5001588;28;20090;-73
2023/08/30 03:06:06;;;;;;;11.60;3.40;;;;;;;;;;4999457;28;20078;-73
2023/08/30 03:08:32;;;;;;;9.38;4.00;;;;;;;;;;5003330;28;20424;-73
2023/08/30 03:11:12;;;;;;;7.68;3.40;;;;;;;;;;5004954;28;20080;-75
2023/08/30 03:13:43;;;;;;;8.13;3.33;;;;;;;;;;5033812;28;20373;-74
2023/08/30 03:16:13;;;;;;;6.93;2.65;;;;;;;;;;5005331;28;20040;-73
2023/08/30 03:18:41;;;;;;;8.88;3.63;;;;;;;;;;5023155;28;20102;-74
2023/08/30 03:21:07;;;;;;;10.50;3.20;;;;;;;;;;5001199;28;20022;-74
2023/08/30 03:23:35;;;;;;;9.35;3.30;;;;;;;;;;5008518;28;20301;-74
2023/08/30 03:26:12;;;;;;;9.00;3.38;;;;;;;;;;5011362;28;20109;-75
2023/08/30 03:28:39;;;;;;;9.35;3.40;;;;;;;;;;5014434;28;20036;-75
2023/08/30 03:31:15;;;;;;;9.88;3.42;;;;;;;;;;4981053;28;20040;-74
2023/08/30 03:33:42;;;;;;;7.03;2.88;;;;;;;;;;5003692;28;20053;-74
2023/08/30 03:36:10;;;;;;;7.75;2.92;;;;;;;;;;5012886;28;20022;-75
2023/08/30 03:38:38;;;;;;;9.75;3.55;;;;;;;;;;4988966;28;20037;-75
2023/08/30 03:41:05;;;;;;;12.27;3.50;;;;;;;;;;5020763;28;20038;-73
2023/08/30 03:43:31;;;;;;;10.27;3.28;;;;;;;;;;4990722;28;20034;-75
2023/08/30 03:45:59;;;;;;;11.10;3.53;;;;;;;;;;5015696;28;20127;-72
2023/08/30 03:48:25;;;;;;;10.52;2.83;;;;;;;;;;5009691;28;20037;-72
2023/08/30 03:50:52;;;;;;;8.55;2.97;;;;;;;;;;4995312;28;20025;-73
2023/08/30 03:53:18;;;;;;;8.98;3.35;;;;;;;;;;5009974;28;20260;-73
2023/08/30 03:55:44;;;;;;;9.38;3.55;;;;;;;;;;5006244;28;20025;-73
2023/08/30 03:58:09;;;;;;;8.25;3.22;;;;;;;;;;5004306;28;20068;-73
2023/08/30 04:00:39;;;;;;;8.65;3.00;;;;;;;;;;5010567;28;20026;-73
2023/08/30 04:03:08;;;;;;;8.18;3.35;;;;;;;;;;5019407;28;20034;-73
2023/08/30 04:05:36;;;;;;;9.25;3.70;;;;;;;;;;5023252;28;20120;-73
2023/08/30 04:08:03;;;;;;;15.05;3.78;;;;;;;;;;5018108;28;20076;-74
2023/08/30 04:10:29;;;;;;;10.30;3.40;;;;;;;;;;5009343;28;20137;-74
2023/08/30 04:12:54;;;;;;;8.40;2.97;;;;;;;;;;5013521;28;20116;-74
2023/08/30 04:15:20;;;;;;;14.75;3.55;;;;;;;;;;5024567;28;20079;-73
2023/08/30 04:17:46;;;;;;;7.85;3.00;;;;;;;;;;5022241;28;20037;-74
2023/08/30 04:20:12;;;;;;;8.63;3.08;;;;;;;;;;5019707;28;20026;-73
2023/08/30 04:22:38;;;;;;;8.95;3.13;;;;;;;;;;5012246;28;20484;-73
2023/08/30 04:25:05;;;;;;;5.25;2.80;;;;;;;;;;5022923;28;20033;-73
2023/08/30 04:27:30;;;;;;;8.60;2.85;;;;;;;;;;5023528;28;20037;-72
2023/08/30 04:29:56;;;;;;;6.80;2.67;;;;;;;;;;5019787;28;20376;-73
2023/08/30 04:32:22;;;;;;;9.95;3.15;;;;;;;;;;5016659;28;20038;-73
2023/08/30 04:34:48;;;;;;;6.47;2.85;;;;;;;;;;5016632;28;20045;-73
2023/08/30 04:37:14;;;;;;;8.02;2.92;;;;;;;;;;4991552;28;20032;-73
2023/08/30 04:39:41;;;;;;;10.15;3.08;;;;;;;;;;5017009;28;20038;-71
2023/08/30 04:42:08;;;;;;;8.98;3.13;;;;;;;;;;5016099;28;20032;-73
2023/08/30 04:44:34;;;;;;;5.95;2.63;;;;;;;;;;5015876;28;20037;-73
2023/08/30 04:47:01;;;;;;;9.63;3.25;;;;;;;;;;5027132;28;20025;-72
2023/08/30 04:49:29;;;;;;;6.25;3.30;;;;;;;;;;5027696;28;20030;-71
2023/08/30 04:51:55;;;;;;;9.00;3.08;;;;;;;;;;5019303;28;20420;-73
2023/08/30 04:54:22;;;;;;;11.05;3.10;;;;;;;;;;5011029;28;20133;-71
2023/08/30 04:56:47;;;;;;;11.25;2.65;;;;;;;;;;5021763;28;20517;-73
2023/08/30 04:59:16;;;;;;;17.77;3.65;;;;;;;;;;5020926;28;20072;-73
2023/08/30 05:01:46;;;;;;;7.78;2.78;;;;;;;;;;5012852;28;20060;-74
2023/08/30 05:04:13;;;;;;;14.20;3.42;;;;;;;;;;5019115;28;20099;-75
2023/08/30 05:06:39;;;;;;;6.65;2.50;;;;;;;;;;5003589;28;20428;-74
2023/08/30 05:09:04;;;;;;;7.60;2.60;;;;;;;;;;5006717;28;20111;-72
2023/08/30 05:11:30;;;;;;;8.93;3.25;;;;;;;;;;5000500;28;20019;-72
2023/08/30 05:13:56;;;;;;;13.93;3.70;;;;;;;;;;5018158;28;20111;-72
2023/08/30 05:16:22;;;;;;;12.43;2.80;;;;;;;;;;5020512;28;20021;-73
2023/08/30 05:18:49;;;;;;;8.73;3.30;;;;;;;;;;5019119;28;20407;-74
2023/08/30 05:21:16;;;;;;;12.75;3.67;;;;;;;;;;5010650;28;20033;-74
2023/08/30 05:23:42;;;;;;;10.25;3.60;;;;;;;;;;5015187;28;20034;-72
2023/08/30 05:26:09;;;;;;;12.23;4.03;;;;;;;;;;5013930;28;20041;-72
2023/08/30 05:28:36;;;;;;;11.65;4.45;;;;;;;;;;5016414;28;20204;-72
2023/08/30 05:31:02;;;;;;;13.50;4.15;;;;;;;;;;5026186;28;20024;-73
2023/08/30 05:33:46;;;;;;;12.43;3.70;;;;;;;;;;5020208;28;20092;-72
2023/08/30 05:36:32;;;;;;;11.50;3.10;;;;;;;;;;5020076;28;20117;-73
2023/08/30 05:39:21;;;;;;;11.25;3.03;;;;;;;;;;5010098;28;20034;-72
2023/08/30 05:41:51;;;;;;;11.05;3.10;;;;;;;;;;5002541;28;20040;-74
2023/08/30 05:44:20;;;;;;;7.05;2.50;;;;;;;;;;5022089;28;20045;-72
2023/08/30 05:46:46;;;;;;;11.32;3.33;;;;;;;;;;5020632;28;20029;-72
2023/08/30 05:49:13;;;;;;;8.30;3.03;;;;;;;;;;5017654;28;20459;-72
2023/08/30 05:51:39;;;;;;;11.35;3.53;;;;;;;;;;5015155;28;20048;-73
2023/08/30 05:54:04;;;;;;;10.98;2.88;;;;;;;;;;5018999;28;20125;-72
2023/08/30 05:56:30;;;;;;;7.85;3.05;;;;;;;;;;5019858;28;20036;-73
2023/08/30 05:58:56;;;;;;;9.00;2.88;;;;;;;;;;5019143;28;20117;-73
2023/08/30 06:01:22;;;;;;;8.27;2.90;;;;;;;;;;5016433;28;20076;-73
2023/08/30 06:03:49;;;;;;;9.93;3.03;;;;;;;;;;5019549;28;20061;-74
2023/08/30 06:06:15;;;;;;;12.05;3.15;;;;;;;;;;5005332;28;20125;-72
2023/08/30 06:08:41;;;;;;;8.50;2.78;;;;;;;;;;5008488;28;20034;-74
2023/08/30 06:11:08;;;;;;;19.10;3.72;;;;;;;;;;5019802;28;20064;-74
2023/08/30 06:13:34;;;;;;;6.60;2.70;;;;;;;;;;5018857;28;20056;-73
2023/08/30 06:16:00;;;;;;;7.18;2.70;;;;;;;;;;5012150;28;20452;-73
2023/08/30 06:18:34;;;;;;;6.32;2.40;;;;;;;;;;5032762;28;20407;-73
2023/08/30 06:21:01;;;;;;;6.20;1.73;;;;;;;;;;5017893;28;20046;-75
2023/08/30 06:23:26;;;;;;;6.20;1.80;;;;;;;;;;5012960;28;20109;-73
2023/08/30 06:25:58;;;;;;;8.55;2.67;;;;;;;;;;5019991;28;20041;-72
2023/08/30 06:28:24;;;;;;;7.90;2.35;;;;;;;;;;5009282;28;20076;-71
2023/08/30 06:30:50;;;;;;;11.30;2.42;;;;;;;;;;5019016;28;20113;-72
2023/08/30 06:33:16;;;;;;;6.00;2.50;;;;;;;;;;5013886;28;20030;-71
2023/08/30 06:35:42;;;;;;;4.38;1.98;;;;;;;;;;5021973;28;20022;-70
2023/08/30 06:38:08;;;;;;;5.90;2.00;;;;;;;;;;5034500;28;20040;-70
2023/08/30 06:40:34;;;;;;;8.23;2.40;;;;;;;;;;5034794;28;20390;-70
2023/08/30 06:42:59;;;;;;;5.80;2.10;;;;;;;;;;5034102;28;20505;-71
2023/08/30 06:45:25;;;;;;;4.72;2.03;;;;;;;;;;5034145;28;20128;-71
2023/08/30 06:47:54;;;;;;;6.75;2.10;;;;;;;;;;5034252;28;20037;-70
2023/08/30 06:50:19;;;;;;;4.68;2.00;;;;;;;;;;5034340;28;20033;-70
2023/08/30 06:52:47;;;;;;;4.32;1.75;;;;;;;;;;5019282;28;20148;-71
2023/08/30 06:55:12;;;;;;;4.45;1.98;;;;;;;;;;5013555;28;20110;-70
2023/08/30 06:57:38;;;;;;;5.30;2.17;;;;;;;;;;5016818;28;20373;-70
2023/08/30 07:00:09;;;;;;;4.90;1.73;;;;;;;;;;5026241;28;20414;-70
2023/08/30 07:02:37;;;;;;;6.88;1.80;;;;;;;;;;5033969;28;20132;-69
2023/08/30 07:05:04;;;;;;;8.05;2.28;;;;;;;;;;5033978;28;20034;-71
2023/08/30 07:07:32;;;;;;;9.15;2.22;;;;;;;;;;5038064;28;20120;-71
2023/08/30 07:09:58;;;;;;;3.88;1.88;;;;;;;;;;5030956;28;20025;-71
2023/08/30 07:12:23;;;;;;;7.45;2.08;;;;;;;;;;5025903;28;20036;-69
2023/08/30 07:14:49;;;;;;;6.03;2.50;;;;;;;;;;5024985;28;20033;-70
2023/08/30 07:17:15;;;;;;;10.98;2.72;;;;;;;;;;5021798;28;20072;-70
2023/08/30 07:19:40;;;;;;;9.43;2.30;;;;;;;;;;5014531;28;20025;-70
2023/08/30 07:22:06;;;;;;;5.47;1.80;;;;;;;;;;5013523;28;20463;-70
2023/08/30 07:24:33;;;;;;;8.10;2.35;;;;;;;;;;5013415;28;20058;-70
2023/08/30 07:26:59;;;;;;;8.43;3.00;;;;;;;;;;5010330;28;20038;-70
2023/08/30 07:29:25;;;;;;;4.03;1.73;;;;;;;;;;5022568;28;20071;-70
2023/08/30 07:31:53;;;;;;;5.68;2.00;;;;;;;;;;5022299;28;20038;-69
2023/08/30 07:34:19;;;;;;;4.03;1.52;;;;;;;;;;5018553;28;20033;-69
2023/08/30 07:36:44;;;;;;;6.28;1.83;;;;;;;;;;5025296;28;20036;-70
2023/08/30 07:39:10;;;;;;;3.78;1.55;;;;;;;;;;5034000;28;20104;-69
2023/08/30 07:41:36;;;;;;;5.97;2.10;;;;;;;;;;5033178;28;20475;-69
2023/08/30 07:44:02;;;;;;;6.60;2.10;;;;;;;;;;5031453;28;20025;-70
2023/08/30 07:46:28;;;;;;;6.68;2.03;;;;;;;;;;5022244;28;20033;-69
2023/08/30 07:48:54;;;;;;;4.45;2.00;;;;;;;;;;5013913;28;20124;-69
2023/08/30 07:51:19;;;;;;;7.10;1.90;;;;;;;;;;5014027;28;20479;-70
2023/08/30 07:53:45;;;;;;;5.60;2.67;;;;;;;;;;5013387;28;20037;-69
2023/08/30 07:56:11;;;;;;;6.30;2.17;;;;;;;;;;5013720;28;20127;-73
2023/08/30 07:58:36;;;;;;;5.35;2.28;;;;;;;;;;5013436;28;20032;-69
2023/08/30 08:01:03;;;;;;;3.28;1.83;;;;;;;;;;5013678;28;20026;-70
2023/08/30 08:03:28;;;;;;;4.07;1.88;;;;;;;;;;5015593;28;20030;-70
2023/08/30 08:05:54;;;;;;;5.25;1.90;;;;;;;;;;5013951;28;20483;-69
2023/08/30 08:08:20;;;;;;;4.50;1.90;;;;;;;;;;5013836;28;20030;-71
2023/08/30 08:10:46;;;;;;;10.20;2.90;;;;;;;;;;5014299;28;20034;-70
2023/08/30 08:13:12;;;;;;;5.75;2.55;;;;;;;;;;5013360;28;20304;-69
2023/08/30 08:15:38;;;;;;;3.65;1.92;;;;;;;;;;5012423;28;20042;-68
2023/08/30 08:18:04;;;;;;;4.90;2.03;;;;;;;;;;5011710;28;20038;-71
2023/08/30 08:20:30;;;;;;;7.25;2.35;;;;;;;;;;5013356;28;20052;-70
2023/08/30 08:22:57;;;;;;;3.50;1.75;;;;;;;;;;5013419;28;20376;-68
2023/08/30 08:25:23;;;;;;;3.30;1.70;;;;;;;;;;5013223;28;20502;-71
2023/08/30 08:27:50;;;;;;;3.13;1.90;;;;;;;;;;5012871;28;20017;-72
2023/08/30 08:30:16;;;;;;;5.25;2.33;;;;;;;;;;5012150;28;20038;-69
2023/08/30 08:32:42;;;;;;;9.68;2.10;;;;;;;;;;5012723;28;20539;-70
2023/08/30 08:35:08;;;;;;;5.78;1.70;;;;;;;;;;5012635;28;20041;-69
2023/08/30 08:37:34;;;;;;;7.07;2.30;;;;;;;;;;5012662;28;20404;-69
2023/08/30 08:40:03;;;;;;;6.72;1.90;;;;;;;;;;5012971;28;20288;-70
2023/08/30 08:42:29;;;;;;;8.93;3.03;;;;;;;;;;5013061;28;20028;-71
2023/08/30 08:44:56;;;;;;;6.22;2.10;;;;;;;;;;5012798;28;20033;-70
2023/08/30 08:47:22;;;;;;;7.35;2.10;;;;;;;;;;5012689;28;20642;-70
2023/08/30 08:49:49;;;;;;;4.80;1.70;;;;;;;;;;5011374;28;20038;-71
2023/08/30 08:52:16;;;;;;;4.88;1.70;;;;;;;;;;5008092;28;20101;-69
2023/08/30 08:54:43;;;;;;;6.43;1.92;;;;;;;;;;4992449;28;20471;-70
2023/08/30 08:57:09;;;;;;;4.32;1.98;;;;;;;;;;4992688;28;20081;-68
2023/08/30 08:59:35;;;;;;;6.30;1.70;;;;;;;;;;4991807;28;20038;-71
2023/08/30 09:02:01;;;;;;;3.60;1.65;;;;;;;;;;5007946;28;20081;-71
2023/08/30 09:04:30;;;;;;;4.63;1.65;;;;;;;;;;4992266;28;20089;-72
2023/08/30 09:06:56;;;;;;;4.03;2.08;;;;;;;;;;5011982;28;20563;-70
2023/08/30 09:09:23;;;;;;;4.32;2.00;;;;;;;;;;5018981;28;20087;-70
2023/08/30 09:11:48;;;;;;;5.57;2.13;;;;;;;;;;5011904;28;20361;-70
2023/08/30 09:14:14;;;;;;;8.52;2.70;;;;;;;;;;5011900;28;20120;-70
2023/08/30 09:16:40;;;;;;;4.40;2.22;;;;;;;;;;5012046;28;20018;-70
2023/08/30 09:19:07;;;;;;;7.20;2.80;;;;;;;;;;5014752;28;20046;-70
2023/08/30 09:21:33;;;;;;;5.28;2.30;;;;;;;;;;5018213;28;20026;-71
2023/08/30 09:24:06;;;;;;;8.95;2.55;;;;;;;;;;5014174;28;20030;-70
2023/08/30 09:26:34;;;;;;;4.72;2.78;;;;;;;;;;5024148;28;20044;-71
2023/08/30 09:29:06;;;;;;;4.78;2.33;;;;;;;;;;5028162;28;20423;-70
2023/08/30 09:31:33;;;;;;;;;;;;;;;;;;5031618;28;20113;-70
2023/08/30 09:33:59;;;;;;;5.00;2.50;;;;;;;;;;5031741;28;19909;-71
2023/08/30 09:36:24;;;;;;;7.75;2.30;;;;;;;;;;5030032;28;20043;-71
2023/08/30 09:38:50;;;;;;;4.75;2.00;;;;;;;;;;5021133;28;20022;-70
2023/08/30 09:41:16;;;;;;;6.40;2.15;;;;;;;;;;5021709;28;20108;-72
2023/08/30 09:43:43;;;;;;;6.55;2.80;;;;;;;;;;5046723;28;20052;-71
2023/08/30 09:46:09;;;;;;;7.35;2.60;;;;;;;;;;5013807;28;20073;-69
2023/08/30 09:48:37;;;;;;;4.72;2.00;;;;;;;;;;5037941;28;20049;-70
2023/08/30 09:51:03;;;;;;;6.60;2.30;;;;;;;;;;5031419;28;20038;-70
2023/08/30 09:53:31;;;;;;;6.20;1.90;;;;;;;;;;5023521;28;20021;-70
2023/08/30 09:55:58;;;;;;;5.93;2.20;;;;;;;;;;5016254;28;20117;-69
2023/08/30 09:58:27;;;;;;;3.95;2.00;;;;;;;;;;5021238;28;20345;-71
2023/08/30 10:00:53;;;;;;;4.00;2.00;;;;;;;;;;5030325;28;20037;-70
2023/08/30 10:03:19;;;;;;;7.07;2.20;;;;;;;;;;5031459;28;20028;-70
2023/08/30 10:05:46;;;;;;;7.35;2.35;;;;;;;;;;5033693;28;20092;-69
2023/08/30 10:08:14;;;;;;;4.65;2.22;;;;;;;;;;5034763;28;20036;-69
2023/08/30 10:10:40;;;;;;;5.40;2.30;;;;;;;;;;5035149;28;20038;-69
2023/08/30 10:13:06;;;;;;;4.80;2.35;;;;;;;;;;5034740;28;20049;-70
2023/08/30 10:15:39;;;;;;;6.70;2.80;;;;;;;;;;5015223;28;20048;-68
2023/08/30 10:18:09;;;;;;;9.90;2.42;;;;;;;;;;5015096;28;20026;-69
2023/08/30 10:20:37;;;;;;;3.95;2.13;;;;;;;;;;5015183;28;20030;-71
2023/08/30 10:23:04;;;;;;;7.15;2.53;;;;;;;;;;5015295;28;20046;-70
2023/08/30 10:25:32;;;;;;;4.63;1.92;;;;;;;;;;5029893;28;20168;-70
2023/08/30 10:27:59;;;;;;;4.55;2.30;;;;;;;;;;5014659;28;20029;-70
2023/08/30 10:30:26;;;;;;;5.57;2.30;;;;;;;;;;5014798;28;20112;-70
2023/08/30 10:32:52;;;;;;;6.43;2.60;;;;;;;;;;5014629;28;20117;-71
2023/08/30 10:35:18;;;;;;;7.32;2.63;;;;;;;;;;5013957;28;20069;-70
2023/08/30 10:37:59;;;;;;;6.32;2.70;;;;;;;;;;5013302;28;20400;-69
2023/08/30 10:40:25;;;;;;;7.47;2.30;;;;;;;;;;5029628;28;20038;-70
2023/08/30 10:43:04;;;;;;;8.82;2.40;;;;;;;;;;5014707;28;20084;-70
2023/08/30 10:45:30;;;;;;;7.47;2.50;;;;;;;;;;5014504;28;20081;-70
2023/08/30 10:47:58;;;;;;;5.45;2.47;;;;;;;;;;5014930;28;20053;-70
2023/08/30 10:50:32;;;;;;;6.90;2.60;;;;;;;;;;5029673;28;20030;-70
2023/08/30 10:52:58;;;;;;;5.95;2.40;;;;;;;;;;5014515;28;20038;-70
2023/08/30 10:55:24;;;;;;;7.70;2.50;;;;;;;;;;5013893;28;20149;-71
2023/08/30 10:58:04;;;;;;;5.57;2.33;;;;;;;;;;5012928;28;20132;-70
2023/08/30 11:00:30;;;;;;;6.53;2.22;;;;;;;;;;5013847;28;20048;-70
2023/08/30 11:02:56;;;;;;;12.38;3.28;;;;;;;;;;5014522;28;20053;-69
2023/08/30 11:05:27;;;;;;;5.78;2.47;;;;;;;;;;5014244;28;20288;-70
2023/08/30 11:07:54;;;;;;;8.40;3.08;;;;;;;;;;5014015;28;20117;-71
2023/08/30 11:10:21;;;;;;;6.85;2.70;;;;;;;;;;5014464;28;20096;-71
2023/08/30 11:12:49;;;;;;;10.93;2.78;;;;;;;;;;5014115;28;20104;-71
2023/08/30 11:15:15;;;;;;;9.55;2.88;;;;;;;;;;5014027;28;20037;-70
2023/08/30 11:17:44;;;;;;;5.43;2.92;;;;;;;;;;5012137;28;20029;-69
2023/08/30 11:20:12;;;;;;;6.03;2.40;;;;;;;;;;5014391;28;20116;-71
2023/08/30 11:22:46;;;;;;;7.90;2.65;;;;;;;;;;5014186;28;20038;-70
2023/08/30 11:25:13;;;;;;;10.68;3.00;;;;;;;;;;5011729;28;20037;-70
2023/08/30 11:27:40;;;;;;;5.80;2.60;;;;;;;;;;5013978;28;20021;-69
2023/08/30 11:30:08;;;;;;;3.65;2.13;;;;;;;;;;5012851;28;20029;-71
2023/08/30 11:32:37;;;;;;;5.95;2.42;;;;;;;;;;5014484;28;20026;-71
2023/08/30 11:35:03;;;;;;;11.90;3.17;;;;;;;;;;5014182;28;20045;-70
2023/08/30 11:37:30;;;;;;;12.10;3.28;;;;;;;;;;5013091;28;20032;-69
2023/08/30 11:39:56;;;;;;;8.65;3.15;;;;;;;;;;5012959;28;20479;-71
2023/08/30 11:42:22;;;;;;;8.65;3.15;;;;;;;;;;4999822;28;20023;-70
2023/08/30 11:44:49;;;;;;;7.85;2.95;;;;;;;;;;4993921;28;20064;-71
2023/08/30 11:47:26;;;;;;;6.15;2.30;;;;;;;;;;4994033;28;20037;-72
2023/08/30 11:49:55;;;;;;;9.75;2.65;;;;;;;;;;5012170;28;20055;-70
2023/08/30 11:52:23;;;;;;;5.55;2.50;;;;;;;;;;5013790;28;20452;-72
2023/08/30 11:54:51;;;;;;;5.15;2.80;;;;;;;;;;4995992;28;20121;-72
2023/08/30 11:57:18;;;;;;;7.20;2.33;;;;;;;;;;4994070;28;20059;-73
2023/08/30 11:59:43;;;;;;;5.47;2.90;;;;;;;;;;4991930;28;20069;-71
2023/08/30 12:02:13;;;;;;;5.70;3.13;;;;;;;;;;4991850;28;20106;-71
2023/08/30 12:04:43;;;;;;;7.85;3.20;;;;;;;;;;4990653;28;20030;-71
2023/08/30 12:07:10;;;;;;;9.35;3.00;;;;;;;;;;4992350;28;20058;-71
2023/08/30 12:09:36;;;;;;;7.03;3.60;;;;;;;;;;4991214;28;20578;-71
2023/08/30 12:12:10;;;;;;;6.65;3.17;;;;;;;;;;4991876;28;20522;-72
2023/08/30 12:14:36;;;;;;;6.10;2.75;;;;;;;;;;4993661;28;20058;-70
2023/08/30 12:17:03;;;;;;;5.40;2.33;;;;;;;;;;4993580;28;20033;-71
2023/08/30 12:19:29;;;;;;;6.30;2.47;;;;;;;;;;4993758;28;20092;-70
2023/08/30 12:21:55;;;;;;;5.15;2.50;;;;;;;;;;4993806;28;20022;-71
2023/08/30 12:24:22;;;;;;;6.85;3.17;;;;;;;;;;4992897;28;20030;-70
2023/08/30 12:26:49;;;;;;;7.68;2.33;;;;;;;;;;4992093;28;20029;-70
2023/08/30 12:29:15;;;;;;;5.22;2.30;;;;;;;;;;4991883;28;20030;-71
2023/08/30 12:31:41;;;;;;;3.85;2.08;;;;;;;;;;4993587;28;20096;-71
2023/08/30 12:34:06;;;;;;;7.43;2.50;;;;;;;;;;4993045;28;20065;-71
2023/08/30 12:36:32;;;;;;;7.35;2.20;;;;;;;;;;4993405;28;20037;-71
2023/08/30 12:38:58;;;;;;;9.85;2.50;;;;;;;;;;5016328;28;20090;-71
2023/08/30 12:41:24;;;;;;;9.95;2.65;;;;;;;;;;5010870;28;20026;-71
2023/08/30 12:43:51;;;;;;;3.80;2.30;;;;;;;;;;5017181;28;20218;-71
2023/08/30 12:46:17;;;;;;;7.75;2.33;;;;;;;;;;5018497;28;20037;-71
2023/08/30 12:48:42;;;;;;;12.77;3.50;;;;;;;;;;5017542;28;20030;-72
2023/08/30 12:51:08;;;;;;;9.00;2.28;;;;;;;;;;5024169;28;20467;-72
2023/08/30 12:53:34;;;;;;;6.85;1.85;;;;;;;;;;5038003;28;20121;-71
2023/08/30 12:55:59;;;;;;;7.75;2.55;;;;;;;;;;5020801;28;20034;-70
2023/08/30 12:58:25;;;;;;;10.07;2.53;;;;;;;;;;5021678;28;20116;-72
2023/08/30 13:00:51;;;;;;;9.68;2.90;;;;;;;;;;5015975;28;20466;-71
2023/08/30 13:03:17;;;;;;;6.63;2.13;;;;;;;;;;5012980;28;20037;-70
2023/08/30 13:05:42;;;;;;;8.52;2.45;;;;;;;;;;5013391;28;20438;-70
2023/08/30 13:08:08;;;;;;;4.35;2.20;;;;;;;;;;5003082;28;20168;-69
2023/08/30 13:10:34;;;;;;;5.55;2.47;;;;;;;;;;5011151;28;20084;-73
2023/08/30 13:13:00;;;;;;;11.30;3.10;;;;;;;;;;5014108;28;20049;-69
2023/08/30 13:15:27;;;;;;;7.55;2.10;;;;;;;;;;5012125;28;20022;-70
2023/08/30 13:17:53;;;;;;;7.05;2.00;;;;;;;;;;5011624;28;20084;-71
2023/08/30 13:20:18;;;;;;;5.80;2.28;;;;;;;;;;5011414;28;20061;-71
2023/08/30 13:22:45;;;;;;;9.93;3.45;;;;;;;;;;4992991;28;20129;-70
2023/08/30 13:25:11;;;;;;;8.27;2.55;;;;;;;;;;5006155;28;20087;-69
2023/08/30 13:27:37;;;;;;;9.15;2.80;;;;;;;;;;4995550;28;20129;-70
2023/08/30 13:30:03;;;;;;;8.32;2.30;;;;;;;;;;4992410;28;20137;-70
2023/08/30 13:32:29;;;;;;;5.75;2.30;;;;;;;;;;4991951;28;20508;-70
2023/08/30 13:34:54;;;;;;;5.47;2.38;;;;;;;;;;4991604;28;20304;-71
2023/08/30 13:37:20;;;;;;;4.07;2.00;;;;;;;;;;4989974;28;20038;-71
2023/08/30 13:39:46;;;;;;;5.05;1.80;;;;;;;;;;4990916;28;20109;-71
2023/08/30 13:42:12;;;;;;;6.40;2.00;;;;;;;;;;5006091;28;20060;-71
2023/08/30 13:44:37;;;;;;;3.63;2.00;;;;;;;;;;5011888;28;20022;-71
2023/08/30 13:47:06;;;;;;;6.10;1.77;;;;;;;;;;5011966;28;20125;-71
2023/08/30 13:49:32;;;;;;;6.40;2.15;;;;;;;;;;5012141;28;20022;-72
2023/08/30 13:51:58;;;;;;;5.78;1.92;;;;;;;;;;5010268;28;20450;-72
2023/08/30 13:54:24;;;;;;;12.75;2.38;;;;;;;;;;5010084;28;20052;-71
2023/08/30 13:56:50;;;;;;;5.43;1.98;;;;;;;;;;5011336;28;20511;-70
2023/08/30 13:59:17;;;;;;;7.22;2.45;;;;;;;;;;5016013;28;20124;-71
2023/08/30 14:01:43;;;;;;;6.25;2.05;;;;;;;;;;5021447;28;20029;-71
2023/08/30 14:04:09;;;;;;;6.60;2.33;;;;;;;;;;5008626;28;20018;-72
2023/08/30 14:06:35;;;;;;;10.02;2.47;;;;;;;;;;5019384;28;20113;-72
2023/08/30 14:09:01;;;;;;;8.80;3.08;;;;;;;;;;4993137;28;20037;-72
2023/08/30 14:11:27;;;;;;;9.93;2.20;;;;;;;;;;5003149;28;20042;-73
2023/08/30 14:13:53;;;;;;;9.15;2.45;;;;;;;;;;5008697;28;20084;-71
2023/08/30 14:16:19;;;;;;;8.02;2.95;;;;;;;;;;5016923;28;20038;-70
2023/08/30 14:18:44;;;;;;;5.07;2.15;;;;;;;;;;5013807;28;20088;-71
2023/08/30 14:21:10;;;;;;;9.63;2.30;;;;;;;;;;5016544;28;20064;-71
2023/08/30 14:23:36;;;;;;;9.75;2.85;;;;;;;;;;5012056;28;20029;-70
2023/08/30 14:26:10;;;;;;;6.90;2.30;;;;;;;;;;5017908;28;20065;-70
2023/08/30 14:28:37;;;;;;;13.40;2.42;;;;;;;;;;5022115;28;20062;-71
2023/08/30 14:31:04;;;;;;;9.20;2.72;;;;;;;;;;5023550;28;20034;-70
2023/08/30 14:33:30;;;;;;;7.43;2.50;;;;;;;;;;5013731;28;20412;-71
2023/08/30 14:35:57;;;;;;;8.60;2.13;;;;;;;;;;5021338;28;20026;-71
2023/08/30 14:38:23;;;;;;;10.90;2.45;;;;;;;;;;5022647;28;20057;-70
2023/08/30 14:40:56;;;;;;;6.45;2.35;;;;;;;;;;5022046;28;20025;-70